sensor_id;sensor_type;location;lat;lon;timestamp;P1;durP1;ratioP1;P2;durP2;ratioP2
52964;SDS011;42923;53.220;6.528;2023-08-06T00:01:51;20.95;;;14.95;;
52964;SDS011;42923;53.220;6.528;2023-08-06T00:04:17;26.80;;;15.60;;
52964;SDS011;42923;53.220;6.528;2023-08-06T00:06:43;17.58;;;14.40;;
52964;SDS011;42923;53.220;6.528;2023-08-06T00:09:08;24.25;;;16.05;;
52964;SDS011;42923;53.220;6.528;2023-08-06T00:11:34;22.75;;;14.60;;
52964;SDS011;42923;53.220;6.528;2023-08-06T00:14:00;24.30;;;15.13;;
52964;SDS011;42923;53.220;6.528;2023-08-06T00:16:25;19.92;;;13.60;;
52964;SDS011;42923;53.220;6.528;2023-08-06T00:18:51;23.00;;;14.13;;
52964;SDS011;42923;53.220;6.528;2023-08-06T00:21:17;22.02;;;14.30;;
52964;SDS011;42923;53.220;6.528;2023-08-06T00:23:42;21.55;;;14.02;;
52964;SDS011;42923;53.220;6.528;2023-08-06T00:26:08;27.20;;;15.00;;
52964;SDS011;42923;53.220;6.528;2023-08-06T00:28:34;21.77;;;14.73;;
52964;SDS011;42923;53.220;6.528;2023-08-06T00:31:00;32.25;;;14.45;;
52964;SDS011;42923;53.220;6.528;2023-08-06T00:33:25;23.30;;;13.82;;
52964;SDS011;42923;53.220;6.528;2023-08-06T00:35:51;21.70;;;13.75;;
52964;SDS011;42923;53.220;6.528;2023-08-06T00:38:17;26.35;;;13.57;;
52964;SDS011;42923;53.220;6.528;2023-08-06T00:40:43;20.08;;;12.73;;
52964;SDS011;42923;53.220;6.528;2023-08-06T00:43:09;23.67;;;13.57;;
52964;SDS011;42923;53.220;6.528;2023-08-06T00:45:36;20.23;;;13.00;;
52964;SDS011;42923;53.220;6.528;2023-08-06T00:48:02;22.70;;;13.68;;
52964;SDS011;42923;53.220;6.528;2023-08-06T00:50:30;21.55;;;12.88;;
52964;SDS011;42923;53.220;6.528;2023-08-06T00:52:56;23.77;;;13.60;;
52964;SDS011;42923;53.220;6.528;2023-08-06T00:55:22;17.55;;;12.13;;
52964;SDS011;42923;53.220;6.528;2023-08-06T00:57:48;16.73;;;11.48;;
52964;SDS011;42923;53.220;6.528;2023-08-06T01:00:16;18.73;;;12.18;;
52964;SDS011;42923;53.220;6.528;2023-08-06T01:02:42;17.58;;;13.23;;
52964;SDS011;42923;53.220;6.528;2023-08-06T01:05:08;16.77;;;12.10;;
52964;SDS011;42923;53.220;6.528;2023-08-06T01:07:45;19.13;;;12.88;;
52964;SDS011;42923;53.220;6.528;2023-08-06T01:10:28;24.48;;;13.50;;
52964;SDS011;42923;53.220;6.528;2023-08-06T01:13:23;22.85;;;12.98;;
52964;SDS011;42923;53.220;6.528;2023-08-06T01:15:55;20.70;;;12.68;;
52964;SDS011;42923;53.220;6.528;2023-08-06T01:18:22;26.88;;;16.08;;
52964;SDS011;42923;53.220;6.528;2023-08-06T01:20:48;23.67;;;13.35;;
52964;SDS011;42923;53.220;6.528;2023-08-06T01:23:15;23.02;;;14.45;;
52964;SDS011;42923;53.220;6.528;2023-08-06T01:28:15;21.45;;;14.70;;
52964;SDS011;42923;53.220;6.528;2023-08-06T01:30:48;21.60;;;13.90;;
52964;SDS011;42923;53.220;6.528;2023-08-06T01:33:16;20.60;;;13.40;;
52964;SDS011;42923;53.220;6.528;2023-08-06T01:35:46;27.80;;;15.77;;
52964;SDS011;42923;53.220;6.528;2023-08-06T01:38:13;25.30;;;14.25;;
52964;SDS011;42923;53.220;6.528;2023-08-06T01:40:39;20.98;;;14.35;;
52964;SDS011;42923;53.220;6.528;2023-08-06T01:43:05;20.00;;;13.65;;
52964;SDS011;42923;53.220;6.528;2023-08-06T01:45:30;23.27;;;14.82;;
52964;SDS011;42923;53.220;6.528;2023-08-06T01:47:56;20.15;;;14.40;;
52964;SDS011;42923;53.220;6.528;2023-08-06T01:50:23;23.52;;;15.00;;
52964;SDS011;42923;53.220;6.528;2023-08-06T01:52:51;32.17;;;16.85;;
52964;SDS011;42923;53.220;6.528;2023-08-06T01:55:17;31.80;;;16.17;;
52964;SDS011;42923;53.220;6.528;2023-08-06T01:57:43;26.92;;;16.45;;
52964;SDS011;42923;53.220;6.528;2023-08-06T02:00:10;26.77;;;17.25;;
52964;SDS011;42923;53.220;6.528;2023-08-06T02:02:39;30.02;;;16.42;;
52964;SDS011;42923;53.220;6.528;2023-08-06T02:05:06;23.92;;;14.98;;
52964;SDS011;42923;53.220;6.528;2023-08-06T02:07:32;23.25;;;15.52;;
52964;SDS011;42923;53.220;6.528;2023-08-06T02:09:58;32.28;;;16.23;;
52964;SDS011;42923;53.220;6.528;2023-08-06T02:12:23;34.25;;;16.20;;
52964;SDS011;42923;53.220;6.528;2023-08-06T02:14:49;29.70;;;17.45;;
52964;SDS011;42923;53.220;6.528;2023-08-06T02:17:15;26.17;;;16.75;;
52964;SDS011;42923;53.220;6.528;2023-08-06T02:19:41;31.27;;;18.08;;
52964;SDS011;42923;53.220;6.528;2023-08-06T02:22:08;27.42;;;16.15;;
52964;SDS011;42923;53.220;6.528;2023-08-06T02:24:34;27.58;;;17.50;;
52964;SDS011;42923;53.220;6.528;2023-08-06T02:26:59;24.98;;;16.63;;
52964;SDS011;42923;53.220;6.528;2023-08-06T02:29:25;24.92;;;16.73;;
52964;SDS011;42923;53.220;6.528;2023-08-06T02:31:51;28.38;;;16.90;;
52964;SDS011;42923;53.220;6.528;2023-08-06T02:34:17;26.20;;;17.08;;
52964;SDS011;42923;53.220;6.528;2023-08-06T02:36:44;32.10;;;17.88;;
52964;SDS011;42923;53.220;6.528;2023-08-06T02:39:10;32.38;;;17.60;;
52964;SDS011;42923;53.220;6.528;2023-08-06T02:41:35;26.20;;;16.60;;
52964;SDS011;42923;53.220;6.528;2023-08-06T02:44:01;25.08;;;16.30;;
52964;SDS011;42923;53.220;6.528;2023-08-06T02:46:27;26.33;;;17.33;;
52964;SDS011;42923;53.220;6.528;2023-08-06T02:48:53;24.30;;;17.48;;
52964;SDS011;42923;53.220;6.528;2023-08-06T02:51:19;23.13;;;16.90;;
52964;SDS011;42923;53.220;6.528;2023-08-06T02:53:45;25.63;;;15.93;;
52964;SDS011;42923;53.220;6.528;2023-08-06T02:56:14;20.67;;;15.02;;
52964;SDS011;42923;53.220;6.528;2023-08-06T02:58:54;24.58;;;16.40;;
52964;SDS011;42923;53.220;6.528;2023-08-06T03:04:03;30.02;;;17.02;;
52964;SDS011;42923;53.220;6.528;2023-08-06T03:06:34;27.52;;;15.30;;
52964;SDS011;42923;53.220;6.528;2023-08-06T03:09:01;25.13;;;15.82;;
52964;SDS011;42923;53.220;6.528;2023-08-06T03:11:27;27.63;;;16.27;;
52964;SDS011;42923;53.220;6.528;2023-08-06T03:13:58;30.05;;;16.42;;
52964;SDS011;42923;53.220;6.528;2023-08-06T03:16:24;22.67;;;16.70;;
52964;SDS011;42923;53.220;6.528;2023-08-06T03:18:49;23.17;;;16.58;;
52964;SDS011;42923;53.220;6.528;2023-08-06T03:21:15;26.08;;;16.50;;
52964;SDS011;42923;53.220;6.528;2023-08-06T03:23:41;24.30;;;15.73;;
52964;SDS011;42923;53.220;6.528;2023-08-06T03:26:08;22.73;;;15.27;;
52964;SDS011;42923;53.220;6.528;2023-08-06T03:28:35;25.50;;;16.02;;
52964;SDS011;42923;53.220;6.528;2023-08-06T03:31:01;17.83;;;13.27;;
52964;SDS011;42923;53.220;6.528;2023-08-06T03:33:33;20.67;;;14.48;;
52964;SDS011;42923;53.220;6.528;2023-08-06T03:36:00;22.05;;;14.15;;
52964;SDS011;42923;53.220;6.528;2023-08-06T03:38:27;26.58;;;16.00;;
52964;SDS011;42923;53.220;6.528;2023-08-06T03:40:53;23.45;;;14.52;;
52964;SDS011;42923;53.220;6.528;2023-08-06T03:43:20;21.05;;;12.93;;
52964;SDS011;42923;53.220;6.528;2023-08-06T03:45:45;23.67;;;14.40;;
52964;SDS011;42923;53.220;6.528;2023-08-06T03:48:11;21.08;;;13.25;;
52964;SDS011;42923;53.220;6.528;2023-08-06T03:50:37;19.60;;;13.63;;
52964;SDS011;42923;53.220;6.528;2023-08-06T03:53:04;17.65;;;13.27;;
52964;SDS011;42923;53.220;6.528;2023-08-06T03:55:30;22.15;;;14.02;;
52964;SDS011;42923;53.220;6.528;2023-08-06T03:57:55;20.15;;;14.00;;
52964;SDS011;42923;53.220;6.528;2023-08-06T04:00:21;18.98;;;14.05;;
52964;SDS011;42923;53.220;6.528;2023-08-06T04:02:51;26.00;;;15.07;;
52964;SDS011;42923;53.220;6.528;2023-08-06T04:05:17;35.38;;;16.08;;
52964;SDS011;42923;53.220;6.528;2023-08-06T04:07:43;22.42;;;14.80;;
52964;SDS011;42923;53.220;6.528;2023-08-06T04:10:09;23.25;;;15.07;;
52964;SDS011;42923;53.220;6.528;2023-08-06T04:12:34;22.65;;;14.27;;
52964;SDS011;42923;53.220;6.528;2023-08-06T04:15:04;26.63;;;15.05;;
52964;SDS011;42923;53.220;6.528;2023-08-06T04:17:30;19.67;;;13.30;;
52964;SDS011;42923;53.220;6.528;2023-08-06T04:19:56;22.50;;;13.50;;
52964;SDS011;42923;53.220;6.528;2023-08-06T04:22:25;23.63;;;14.77;;
52964;SDS011;42923;53.220;6.528;2023-08-06T04:24:51;26.05;;;13.30;;
52964;SDS011;42923;53.220;6.528;2023-08-06T04:27:18;21.58;;;13.20;;
52964;SDS011;42923;53.220;6.528;2023-08-06T04:29:46;20.85;;;11.88;;
52964;SDS011;42923;53.220;6.528;2023-08-06T04:32:12;20.38;;;13.93;;
52964;SDS011;42923;53.220;6.528;2023-08-06T04:34:43;22.60;;;14.35;;
52964;SDS011;42923;53.220;6.528;2023-08-06T04:37:09;24.65;;;14.65;;
52964;SDS011;42923;53.220;6.528;2023-08-06T04:39:35;20.65;;;13.55;;
52964;SDS011;42923;53.220;6.528;2023-08-06T04:42:00;20.02;;;12.75;;
52964;SDS011;42923;53.220;6.528;2023-08-06T04:44:27;22.90;;;13.20;;
52964;SDS011;42923;53.220;6.528;2023-08-06T04:46:53;18.33;;;13.80;;
52964;SDS011;42923;53.220;6.528;2023-08-06T04:49:22;19.77;;;12.00;;
52964;SDS011;42923;53.220;6.528;2023-08-06T04:51:48;22.88;;;13.57;;
52964;SDS011;42923;53.220;6.528;2023-08-06T04:54:13;21.92;;;13.63;;
52964;SDS011;42923;53.220;6.528;2023-08-06T04:56:39;20.38;;;13.07;;
52964;SDS011;42923;53.220;6.528;2023-08-06T04:59:05;21.27;;;12.65;;
52964;SDS011;42923;53.220;6.528;2023-08-06T05:01:31;17.85;;;12.60;;
52964;SDS011;42923;53.220;6.528;2023-08-06T05:03:57;21.85;;;13.50;;
52964;SDS011;42923;53.220;6.528;2023-08-06T05:06:22;15.60;;;12.68;;
52964;SDS011;42923;53.220;6.528;2023-08-06T05:08:48;18.15;;;13.35;;
52964;SDS011;42923;53.220;6.528;2023-08-06T05:11:14;15.45;;;11.52;;
52964;SDS011;42923;53.220;6.528;2023-08-06T05:13:40;20.75;;;12.43;;
52964;SDS011;42923;53.220;6.528;2023-08-06T05:16:05;20.35;;;12.15;;
52964;SDS011;42923;53.220;6.528;2023-08-06T05:18:31;25.48;;;13.07;;
52964;SDS011;42923;53.220;6.528;2023-08-06T05:20:59;25.08;;;13.10;;
52964;SDS011;42923;53.220;6.528;2023-08-06T05:23:25;19.88;;;13.27;;
52964;SDS011;42923;53.220;6.528;2023-08-06T05:25:50;26.20;;;12.90;;
52964;SDS011;42923;53.220;6.528;2023-08-06T05:28:16;26.25;;;13.95;;
52964;SDS011;42923;53.220;6.528;2023-08-06T05:30:42;18.02;;;12.43;;
52964;SDS011;42923;53.220;6.528;2023-08-06T05:33:08;21.83;;;12.80;;
52964;SDS011;42923;53.220;6.528;2023-08-06T05:35:34;25.15;;;14.50;;
52964;SDS011;42923;53.220;6.528;2023-08-06T05:37:59;27.88;;;13.77;;
52964;SDS011;42923;53.220;6.528;2023-08-06T05:40:25;24.50;;;13.90;;
52964;SDS011;42923;53.220;6.528;2023-08-06T05:42:54;25.65;;;14.90;;
52964;SDS011;42923;53.220;6.528;2023-08-06T05:45:20;23.50;;;14.07;;
52964;SDS011;42923;53.220;6.528;2023-08-06T05:47:47;19.45;;;13.85;;
52964;SDS011;42923;53.220;6.528;2023-08-06T05:50:13;20.90;;;14.82;;
52964;SDS011;42923;53.220;6.528;2023-08-06T05:52:39;23.52;;;14.93;;
52964;SDS011;42923;53.220;6.528;2023-08-06T05:55:05;19.25;;;13.90;;
52964;SDS011;42923;53.220;6.528;2023-08-06T05:57:31;19.45;;;12.73;;
52964;SDS011;42923;53.220;6.528;2023-08-06T05:59:56;19.25;;;14.20;;
52964;SDS011;42923;53.220;6.528;2023-08-06T06:02:22;20.95;;;14.52;;
52964;SDS011;42923;53.220;6.528;2023-08-06T06:04:48;20.02;;;14.02;;
52964;SDS011;42923;53.220;6.528;2023-08-06T06:07:14;18.95;;;13.82;;
52964;SDS011;42923;53.220;6.528;2023-08-06T06:09:39;24.00;;;14.40;;
52964;SDS011;42923;53.220;6.528;2023-08-06T06:12:05;20.45;;;14.00;;
52964;SDS011;42923;53.220;6.528;2023-08-06T06:14:31;17.83;;;12.73;;
52964;SDS011;42923;53.220;6.528;2023-08-06T06:16:58;15.98;;;12.07;;
52964;SDS011;42923;53.220;6.528;2023-08-06T06:19:25;21.73;;;12.98;;
52964;SDS011;42923;53.220;6.528;2023-08-06T06:21:50;14.60;;;11.23;;
52964;SDS011;42923;53.220;6.528;2023-08-06T06:24:17;13.77;;;10.80;;
52964;SDS011;42923;53.220;6.528;2023-08-06T06:26:42;14.05;;;11.25;;
52964;SDS011;42923;53.220;6.528;2023-08-06T06:29:08;11.55;;;9.15;;
52964;SDS011;42923;53.220;6.528;2023-08-06T06:31:34;15.05;;;10.40;;
52964;SDS011;42923;53.220;6.528;2023-08-06T06:33:59;13.38;;;10.05;;
52964;SDS011;42923;53.220;6.528;2023-08-06T06:36:26;11.85;;;9.02;;
52964;SDS011;42923;53.220;6.528;2023-08-06T06:38:51;9.65;;;8.68;;
52964;SDS011;42923;53.220;6.528;2023-08-06T06:41:17;12.10;;;9.30;;
52964;SDS011;42923;53.220;6.528;2023-08-06T06:43:43;10.65;;;7.93;;
52964;SDS011;42923;53.220;6.528;2023-08-06T06:46:09;9.02;;;7.90;;
52964;SDS011;42923;53.220;6.528;2023-08-06T06:48:35;8.38;;;7.30;;
52964;SDS011;42923;53.220;6.528;2023-08-06T06:51:01;10.00;;;8.00;;
52964;SDS011;42923;53.220;6.528;2023-08-06T06:53:26;7.35;;;6.50;;
52964;SDS011;42923;53.220;6.528;2023-08-06T06:55:56;7.13;;;6.28;;
52964;SDS011;42923;53.220;6.528;2023-08-06T06:58:26;9.15;;;6.63;;
52964;SDS011;42923;53.220;6.528;2023-08-06T07:00:52;7.60;;;6.10;;
52964;SDS011;42923;53.220;6.528;2023-08-06T07:03:19;8.45;;;6.05;;
52964;SDS011;42923;53.220;6.528;2023-08-06T07:05:45;6.03;;;5.50;;
52964;SDS011;42923;53.220;6.528;2023-08-06T07:08:11;7.53;;;5.82;;
52964;SDS011;42923;53.220;6.528;2023-08-06T07:10:37;7.28;;;5.70;;
52964;SDS011;42923;53.220;6.528;2023-08-06T07:13:03;6.70;;;5.97;;
52964;SDS011;42923;53.220;6.528;2023-08-06T07:15:29;5.90;;;5.15;;
52964;SDS011;42923;53.220;6.528;2023-08-06T07:17:55;6.43;;;5.82;;
52964;SDS011;42923;53.220;6.528;2023-08-06T07:20:21;8.20;;;5.70;;
52964;SDS011;42923;53.220;6.528;2023-08-06T07:22:46;5.95;;;5.35;;
52964;SDS011;42923;53.220;6.528;2023-08-06T07:25:12;8.45;;;4.80;;
52964;SDS011;42923;53.220;6.528;2023-08-06T07:27:38;6.25;;;5.65;;
52964;SDS011;42923;53.220;6.528;2023-08-06T07:30:04;6.07;;;5.22;;
52964;SDS011;42923;53.220;6.528;2023-08-06T07:32:30;6.15;;;5.53;;
52964;SDS011;42923;53.220;6.528;2023-08-06T07:34:56;6.80;;;4.93;;
52964;SDS011;42923;53.220;6.528;2023-08-06T07:37:25;5.80;;;5.30;;
52964;SDS011;42923;53.220;6.528;2023-08-06T07:39:53;5.70;;;5.10;;
52964;SDS011;42923;53.220;6.528;2023-08-06T07:42:22;5.43;;;4.93;;
52964;SDS011;42923;53.220;6.528;2023-08-06T07:44:52;7.97;;;5.10;;
52964;SDS011;42923;53.220;6.528;2023-08-06T07:47:19;5.50;;;5.00;;
52964;SDS011;42923;53.220;6.528;2023-08-06T07:49:45;6.10;;;5.13;;
52964;SDS011;42923;53.220;6.528;2023-08-06T07:52:11;5.50;;;4.82;;
52964;SDS011;42923;53.220;6.528;2023-08-06T07:54:36;5.00;;;4.50;;
52964;SDS011;42923;53.220;6.528;2023-08-06T07:57:02;4.60;;;4.20;;
52964;SDS011;42923;53.220;6.528;2023-08-06T07:59:28;5.18;;;4.40;;
52964;SDS011;42923;53.220;6.528;2023-08-06T08:01:54;5.53;;;4.05;;
52964;SDS011;42923;53.220;6.528;2023-08-06T08:04:20;7.72;;;4.45;;
52964;SDS011;42923;53.220;6.528;2023-08-06T08:06:46;4.57;;;3.85;;
52964;SDS011;42923;53.220;6.528;2023-08-06T08:09:12;4.47;;;3.58;;
52964;SDS011;42923;53.220;6.528;2023-08-06T08:11:39;4.03;;;3.60;;
52964;SDS011;42923;53.220;6.528;2023-08-06T08:14:05;4.88;;;3.88;;
52964;SDS011;42923;53.220;6.528;2023-08-06T08:16:31;4.35;;;3.95;;
52964;SDS011;42923;53.220;6.528;2023-08-06T08:18:57;4.75;;;3.53;;
52964;SDS011;42923;53.220;6.528;2023-08-06T08:21:23;4.55;;;4.15;;
52964;SDS011;42923;53.220;6.528;2023-08-06T08:23:51;5.03;;;3.92;;
52964;SDS011;42923;53.220;6.528;2023-08-06T08:26:17;5.38;;;3.85;;
52964;SDS011;42923;53.220;6.528;2023-08-06T08:28:43;4.18;;;3.83;;
52964;SDS011;42923;53.220;6.528;2023-08-06T08:31:09;5.20;;;3.00;;
52964;SDS011;42923;53.220;6.528;2023-08-06T08:33:39;3.75;;;3.15;;
52964;SDS011;42923;53.220;6.528;2023-08-06T08:36:05;4.97;;;3.30;;
52964;SDS011;42923;53.220;6.528;2023-08-06T08:38:31;3.97;;;2.97;;
52964;SDS011;42923;53.220;6.528;2023-08-06T08:40:56;4.53;;;3.20;;
52964;SDS011;42923;53.220;6.528;2023-08-06T08:43:23;4.32;;;2.90;;
52964;SDS011;42923;53.220;6.528;2023-08-06T08:45:53;3.15;;;2.85;;
52964;SDS011;42923;53.220;6.528;2023-08-06T08:48:24;3.60;;;3.05;;
52964;SDS011;42923;53.220;6.528;2023-08-06T08:50:50;3.03;;;2.67;;
52964;SDS011;42923;53.220;6.528;2023-08-06T08:53:16;3.15;;;2.70;;
52964;SDS011;42923;53.220;6.528;2023-08-06T08:55:43;3.15;;;2.85;;
52964;SDS011;42923;53.220;6.528;2023-08-06T08:58:14;3.85;;;2.92;;
52964;SDS011;42923;53.220;6.528;2023-08-06T09:00:45;2.70;;;2.50;;
52964;SDS011;42923;53.220;6.528;2023-08-06T09:03:12;4.53;;;2.58;;
52964;SDS011;42923;53.220;6.528;2023-08-06T09:05:39;3.45;;;2.97;;
52964;SDS011;42923;53.220;6.528;2023-08-06T09:08:08;2.80;;;2.30;;
52964;SDS011;42923;53.220;6.528;2023-08-06T09:10:40;4.32;;;2.70;;
52964;SDS011;42923;53.220;6.528;2023-08-06T09:13:07;3.75;;;2.60;;
52964;SDS011;42923;53.220;6.528;2023-08-06T09:15:33;3.78;;;2.00;;
52964;SDS011;42923;53.220;6.528;2023-08-06T09:17:59;2.28;;;2.03;;
52964;SDS011;42923;53.220;6.528;2023-08-06T09:20:33;2.05;;;1.83;;
52964;SDS011;42923;53.220;6.528;2023-08-06T09:23:06;2.67;;;2.20;;
52964;SDS011;42923;53.220;6.528;2023-08-06T09:28:05;3.22;;;2.30;;
52964;SDS011;42923;53.220;6.528;2023-08-06T09:30:32;2.97;;;1.95;;
52964;SDS011;42923;53.220;6.528;2023-08-06T09:32:59;2.90;;;1.95;;
52964;SDS011;42923;53.220;6.528;2023-08-06T09:35:29;3.05;;;2.00;;
52964;SDS011;42923;53.220;6.528;2023-08-06T09:37:56;2.80;;;2.35;;
52964;SDS011;42923;53.220;6.528;2023-08-06T09:40:32;5.80;;;2.05;;
52964;SDS011;42923;53.220;6.528;2023-08-06T09:42:58;2.50;;;1.67;;
52964;SDS011;42923;53.220;6.528;2023-08-06T09:45:43;2.00;;;1.80;;
52964;SDS011;42923;53.220;6.528;2023-08-06T09:48:09;3.58;;;1.80;;
52964;SDS011;42923;53.220;6.528;2023-08-06T09:50:36;2.42;;;1.80;;
52964;SDS011;42923;53.220;6.528;2023-08-06T09:53:06;3.50;;;1.85;;
52964;SDS011;42923;53.220;6.528;2023-08-06T09:55:35;2.45;;;1.90;;
52964;SDS011;42923;53.220;6.528;2023-08-06T09:58:02;2.38;;;2.08;;
52964;SDS011;42923;53.220;6.528;2023-08-06T10:00:31;3.83;;;2.20;;
52964;SDS011;42923;53.220;6.528;2023-08-06T10:02:59;4.22;;;1.75;;
52964;SDS011;42923;53.220;6.528;2023-08-06T10:05:25;3.72;;;2.03;;
52964;SDS011;42923;53.220;6.528;2023-08-06T10:07:53;2.38;;;1.80;;
52964;SDS011;42923;53.220;6.528;2023-08-06T10:10:21;3.72;;;1.73;;
52964;SDS011;42923;53.220;6.528;2023-08-06T10:12:48;2.05;;;1.75;;
52964;SDS011;42923;53.220;6.528;2023-08-06T10:15:17;3.90;;;1.63;;
52964;SDS011;42923;53.220;6.528;2023-08-06T10:17:47;2.17;;;1.52;;
52964;SDS011;42923;53.220;6.528;2023-08-06T10:20:16;4.20;;;2.00;;
52964;SDS011;42923;53.220;6.528;2023-08-06T10:22:43;4.65;;;2.00;;
52964;SDS011;42923;53.220;6.528;2023-08-06T10:25:10;2.60;;;2.25;;
52964;SDS011;42923;53.220;6.528;2023-08-06T10:27:53;3.25;;;2.10;;
52964;SDS011;42923;53.220;6.528;2023-08-06T10:30:32;4.00;;;2.00;;
52964;SDS011;42923;53.220;6.528;2023-08-06T10:32:59;2.90;;;2.20;;
52964;SDS011;42923;53.220;6.528;2023-08-06T10:35:38;3.78;;;2.03;;
52964;SDS011;42923;53.220;6.528;2023-08-06T10:38:09;2.45;;;1.70;;
52964;SDS011;42923;53.220;6.528;2023-08-06T10:43:29;2.72;;;2.10;;
52964;SDS011;42923;53.220;6.528;2023-08-06T10:45:58;5.90;;;2.77;;
52964;SDS011;42923;53.220;6.528;2023-08-06T10:48:32;3.63;;;2.03;;
52964;SDS011;42923;53.220;6.528;2023-08-06T10:50:59;3.50;;;2.10;;
52964;SDS011;42923;53.220;6.528;2023-08-06T10:53:26;2.88;;;1.88;;
52964;SDS011;42923;53.220;6.528;2023-08-06T10:55:52;2.97;;;1.95;;
52964;SDS011;42923;53.220;6.528;2023-08-06T10:58:17;2.58;;;1.83;;
52964;SDS011;42923;53.220;6.528;2023-08-06T11:00:43;2.05;;;1.70;;
52964;SDS011;42923;53.220;6.528;2023-08-06T11:03:09;3.58;;;2.00;;
52964;SDS011;42923;53.220;6.528;2023-08-06T11:05:41;2.10;;;1.90;;
52964;SDS011;42923;53.220;6.528;2023-08-06T11:08:22;4.20;;;2.03;;
52964;SDS011;42923;53.220;6.528;2023-08-06T11:10:50;2.75;;;1.65;;
52964;SDS011;42923;53.220;6.528;2023-08-06T11:13:18;1.35;;;1.25;;
52964;SDS011;42923;53.220;6.528;2023-08-06T11:15:45;2.55;;;1.70;;
52964;SDS011;42923;53.220;6.528;2023-08-06T11:18:11;2.78;;;1.95;;
52964;SDS011;42923;53.220;6.528;2023-08-06T11:20:37;1.77;;;1.63;;
52964;SDS011;42923;53.220;6.528;2023-08-06T11:23:04;3.03;;;1.67;;
52964;SDS011;42923;53.220;6.528;2023-08-06T11:25:30;1.98;;;1.63;;
52964;SDS011;42923;53.220;6.528;2023-08-06T11:27:56;1.88;;;1.60;;
52964;SDS011;42923;53.220;6.528;2023-08-06T11:30:22;3.38;;;2.05;;
52964;SDS011;42923;53.220;6.528;2023-08-06T11:32:47;2.70;;;1.40;;
52964;SDS011;42923;53.220;6.528;2023-08-06T11:35:14;2.00;;;1.75;;
52964;SDS011;42923;53.220;6.528;2023-08-06T11:37:47;2.80;;;1.92;;
52964;SDS011;42923;53.220;6.528;2023-08-06T11:40:16;2.95;;;2.05;;
52964;SDS011;42923;53.220;6.528;2023-08-06T11:42:42;2.25;;;1.80;;
52964;SDS011;42923;53.220;6.528;2023-08-06T11:45:08;2.28;;;1.42;;
52964;SDS011;42923;53.220;6.528;2023-08-06T11:47:37;3.15;;;1.67;;
52964;SDS011;42923;53.220;6.528;2023-08-06T11:50:04;2.15;;;1.77;;
52964;SDS011;42923;53.220;6.528;2023-08-06T11:52:30;2.50;;;2.05;;
52964;SDS011;42923;53.220;6.528;2023-08-06T11:57:36;4.22;;;1.90;;
52964;SDS011;42923;53.220;6.528;2023-08-06T12:02:41;2.88;;;2.10;;
52964;SDS011;42923;53.220;6.528;2023-08-06T12:05:11;2.17;;;1.90;;
52964;SDS011;42923;53.220;6.528;2023-08-06T12:07:42;3.30;;;2.00;;
52964;SDS011;42923;53.220;6.528;2023-08-06T12:10:15;2.38;;;1.60;;
52964;SDS011;42923;53.220;6.528;2023-08-06T12:12:42;3.42;;;2.08;;
52964;SDS011;42923;53.220;6.528;2023-08-06T12:15:08;3.03;;;2.15;;
52964;SDS011;42923;53.220;6.528;2023-08-06T12:17:35;5.03;;;1.73;;
52964;SDS011;42923;53.220;6.528;2023-08-06T12:20:05;2.45;;;1.77;;
52964;SDS011;42923;53.220;6.528;2023-08-06T12:22:32;2.65;;;1.83;;
52964;SDS011;42923;53.220;6.528;2023-08-06T12:25:04;3.42;;;1.90;;
52964;SDS011;42923;53.220;6.528;2023-08-06T12:27:33;4.88;;;2.03;;
52964;SDS011;42923;53.220;6.528;2023-08-06T12:30:09;3.00;;;2.35;;
52964;SDS011;42923;53.220;6.528;2023-08-06T12:32:36;3.72;;;1.88;;
52964;SDS011;42923;53.220;6.528;2023-08-06T12:35:03;2.03;;;1.42;;
52964;SDS011;42923;53.220;6.528;2023-08-06T12:37:30;4.63;;;1.65;;
52964;SDS011;42923;53.220;6.528;2023-08-06T12:39:56;1.75;;;1.40;;
52964;SDS011;42923;53.220;6.528;2023-08-06T12:42:22;4.90;;;1.95;;
52964;SDS011;42923;53.220;6.528;2023-08-06T12:44:48;2.72;;;1.90;;
52964;SDS011;42923;53.220;6.528;2023-08-06T12:47:15;2.10;;;1.83;;
52964;SDS011;42923;53.220;6.528;2023-08-06T12:49:41;2.15;;;1.70;;
52964;SDS011;42923;53.220;6.528;2023-08-06T12:52:07;1.88;;;1.70;;
52964;SDS011;42923;53.220;6.528;2023-08-06T12:54:34;2.47;;;1.70;;
52964;SDS011;42923;53.220;6.528;2023-08-06T12:57:03;11.27;;;2.00;;
52964;SDS011;42923;53.220;6.528;2023-08-06T12:59:29;3.25;;;2.53;;
52964;SDS011;42923;53.220;6.528;2023-08-06T13:01:56;2.08;;;1.88;;
52964;SDS011;42923;53.220;6.528;2023-08-06T13:04:21;4.00;;;1.70;;
52964;SDS011;42923;53.220;6.528;2023-08-06T13:06:47;3.33;;;1.90;;
52964;SDS011;42923;53.220;6.528;2023-08-06T13:09:13;2.13;;;1.60;;
52964;SDS011;42923;53.220;6.528;2023-08-06T13:11:40;5.75;;;2.15;;
52964;SDS011;42923;53.220;6.528;2023-08-06T13:14:06;3.25;;;1.90;;
52964;SDS011;42923;53.220;6.528;2023-08-06T13:16:36;2.70;;;1.90;;
52964;SDS011;42923;53.220;6.528;2023-08-06T13:19:04;2.85;;;2.00;;
52964;SDS011;42923;53.220;6.528;2023-08-06T13:21:33;2.15;;;1.70;;
52964;SDS011;42923;53.220;6.528;2023-08-06T13:24:05;3.58;;;1.60;;
52964;SDS011;42923;53.220;6.528;2023-08-06T13:26:31;1.90;;;1.60;;
52964;SDS011;42923;53.220;6.528;2023-08-06T13:28:57;2.58;;;1.77;;
52964;SDS011;42923;53.220;6.528;2023-08-06T13:31:24;2.22;;;1.70;;
52964;SDS011;42923;53.220;6.528;2023-08-06T13:33:51;3.67;;;1.75;;
52964;SDS011;42923;53.220;6.528;2023-08-06T13:36:17;2.22;;;1.90;;
52964;SDS011;42923;53.220;6.528;2023-08-06T13:38:42;2.40;;;2.20;;
52964;SDS011;42923;53.220;6.528;2023-08-06T13:41:08;1.75;;;1.65;;
52964;SDS011;42923;53.220;6.528;2023-08-06T13:43:34;2.63;;;1.67;;
52964;SDS011;42923;53.220;6.528;2023-08-06T13:46:00;4.40;;;2.08;;
52964;SDS011;42923;53.220;6.528;2023-08-06T13:48:25;2.08;;;1.85;;
52964;SDS011;42923;53.220;6.528;2023-08-06T13:50:51;1.95;;;1.67;;
52964;SDS011;42923;53.220;6.528;2023-08-06T13:53:17;1.95;;;1.77;;
52964;SDS011;42923;53.220;6.528;2023-08-06T13:55:43;2.17;;;1.95;;
52964;SDS011;42923;53.220;6.528;2023-08-06T13:58:09;2.22;;;1.73;;
52964;SDS011;42923;53.220;6.528;2023-08-06T14:00:38;3.85;;;1.60;;
52964;SDS011;42923;53.220;6.528;2023-08-06T14:03:03;2.22;;;1.60;;
52964;SDS011;42923;53.220;6.528;2023-08-06T14:05:29;3.17;;;1.77;;
52964;SDS011;42923;53.220;6.528;2023-08-06T14:07:55;1.40;;;1.30;;
52964;SDS011;42923;53.220;6.528;2023-08-06T14:10:21;1.58;;;1.40;;
52964;SDS011;42923;53.220;6.528;2023-08-06T14:12:46;2.00;;;1.73;;
52964;SDS011;42923;53.220;6.528;2023-08-06T14:15:12;1.95;;;1.45;;
52964;SDS011;42923;53.220;6.528;2023-08-06T14:17:38;2.28;;;1.58;;
52964;SDS011;42923;53.220;6.528;2023-08-06T14:20:05;1.95;;;1.60;;
52964;SDS011;42923;53.220;6.528;2023-08-06T14:22:33;1.60;;;1.35;;
52964;SDS011;42923;53.220;6.528;2023-08-06T14:24:59;2.63;;;1.50;;
52964;SDS011;42923;53.220;6.528;2023-08-06T14:27:25;1.85;;;1.50;;
52964;SDS011;42923;53.220;6.528;2023-08-06T14:29:50;2.15;;;1.67;;
52964;SDS011;42923;53.220;6.528;2023-08-06T14:32:16;1.85;;;1.70;;
52964;SDS011;42923;53.220;6.528;2023-08-06T14:34:45;2.55;;;1.60;;
52964;SDS011;42923;53.220;6.528;2023-08-06T14:37:10;2.28;;;1.60;;
52964;SDS011;42923;53.220;6.528;2023-08-06T14:39:36;1.75;;;1.50;;
52964;SDS011;42923;53.220;6.528;2023-08-06T14:42:03;2.33;;;1.33;;
52964;SDS011;42923;53.220;6.528;2023-08-06T14:44:29;2.08;;;1.70;;
52964;SDS011;42923;53.220;6.528;2023-08-06T14:46:55;3.92;;;1.98;;
52964;SDS011;42923;53.220;6.528;2023-08-06T14:49:21;4.40;;;1.73;;
52964;SDS011;42923;53.220;6.528;2023-08-06T14:51:47;2.35;;;1.90;;